sensor_id;sensor_type;location;lat;lon;timestamp;P1;durP1;ratioP1;P2;durP2;ratioP2
56455;SDS011;42354;53.218;6.564;2022-11-15T00:00:49;41.47;;;23.30;;
56455;SDS011;42354;53.218;6.564;2022-11-15T00:03:22;42.67;;;24.08;;
56455;SDS011;42354;53.218;6.564;2022-11-15T00:05:49;38.38;;;21.58;;
56455;SDS011;42354;53.218;6.564;2022-11-15T00:08:16;38.67;;;21.80;;
56455;SDS011;42354;53.218;6.564;2022-11-15T00:10:41;40.08;;;22.35;;
56455;SDS011;42354;53.218;6.564;2022-11-15T00:13:07;42.72;;;22.50;;
56455;SDS011;42354;53.218;6.564;2022-11-15T00:15:38;42.53;;;23.98;;
56455;SDS011;42354;53.218;6.564;2022-11-15T00:18:05;40.75;;;22.30;;
56455;SDS011;42354;53.218;6.564;2022-11-15T00:20:33;40.75;;;23.08;;
56455;SDS011;42354;53.218;6.564;2022-11-15T00:22:59;37.45;;;21.42;;
56455;SDS011;42354;53.218;6.564;2022-11-15T00:25:24;40.80;;;22.58;;
56455;SDS011;42354;53.218;6.564;2022-11-15T00:27:50;45.00;;;24.05;;
56455;SDS011;42354;53.218;6.564;2022-11-15T00:30:16;39.03;;;23.50;;
56455;SDS011;42354;53.218;6.564;2022-11-15T00:32:42;40.85;;;22.70;;
56455;SDS011;42354;53.218;6.564;2022-11-15T00:35:08;43.60;;;23.48;;
56455;SDS011;42354;53.218;6.564;2022-11-15T00:37:33;39.17;;;23.15;;
56455;SDS011;42354;53.218;6.564;2022-11-15T00:39:58;44.47;;;23.55;;
56455;SDS011;42354;53.218;6.564;2022-11-15T00:42:24;39.53;;;22.67;;
56455;SDS011;42354;53.218;6.564;2022-11-15T00:44:49;47.35;;;22.33;;
56455;SDS011;42354;53.218;6.564;2022-11-15T00:47:14;41.72;;;23.83;;
56455;SDS011;42354;53.218;6.564;2022-11-15T00:49:39;41.92;;;22.80;;
56455;SDS011;42354;53.218;6.564;2022-11-15T00:52:06;44.85;;;22.88;;
56455;SDS011;42354;53.218;6.564;2022-11-15T00:54:31;41.42;;;23.48;;
56455;SDS011;42354;53.218;6.564;2022-11-15T00:56:56;44.78;;;22.73;;
56455;SDS011;42354;53.218;6.564;2022-11-15T00:59:21;40.38;;;22.27;;
56455;SDS011;42354;53.218;6.564;2022-11-15T01:01:47;45.25;;;23.67;;
56455;SDS011;42354;53.218;6.564;2022-11-15T01:04:12;42.78;;;22.88;;
56455;SDS011;42354;53.218;6.564;2022-11-15T01:06:38;42.15;;;24.02;;
56455;SDS011;42354;53.218;6.564;2022-11-15T01:09:04;38.97;;;22.75;;
56455;SDS011;42354;53.218;6.564;2022-11-15T01:11:29;38.20;;;21.40;;
56455;SDS011;42354;53.218;6.564;2022-11-15T01:13:54;39.03;;;22.17;;
56455;SDS011;42354;53.218;6.564;2022-11-15T01:16:20;37.08;;;21.30;;
56455;SDS011;42354;53.218;6.564;2022-11-15T01:18:45;39.38;;;21.67;;
56455;SDS011;42354;53.218;6.564;2022-11-15T01:21:12;39.42;;;22.20;;
56455;SDS011;42354;53.218;6.564;2022-11-15T01:23:39;35.17;;;21.02;;
56455;SDS011;42354;53.218;6.564;2022-11-15T01:26:06;38.55;;;21.83;;
56455;SDS011;42354;53.218;6.564;2022-11-15T01:28:36;43.33;;;20.90;;
56455;SDS011;42354;53.218;6.564;2022-11-15T01:31:03;39.67;;;23.08;;
56455;SDS011;42354;53.218;6.564;2022-11-15T01:33:33;40.20;;;21.23;;
56455;SDS011;42354;53.218;6.564;2022-11-15T01:36:03;39.90;;;22.30;;
56455;SDS011;42354;53.218;6.564;2022-11-15T01:38:29;38.88;;;21.98;;
56455;SDS011;42354;53.218;6.564;2022-11-15T01:40:55;43.47;;;22.38;;
56455;SDS011;42354;53.218;6.564;2022-11-15T01:43:21;43.28;;;24.02;;
56455;SDS011;42354;53.218;6.564;2022-11-15T01:45:52;45.70;;;24.73;;
56455;SDS011;42354;53.218;6.564;2022-11-15T01:48:25;44.42;;;23.17;;
56455;SDS011;42354;53.218;6.564;2022-11-15T01:50:57;43.72;;;23.92;;
56455;SDS011;42354;53.218;6.564;2022-11-15T01:53:23;42.25;;;23.77;;
56455;SDS011;42354;53.218;6.564;2022-11-15T01:55:51;50.08;;;25.23;;
56455;SDS011;42354;53.218;6.564;2022-11-15T01:58:17;45.88;;;23.52;;
56455;SDS011;42354;53.218;6.564;2022-11-15T02:00:43;41.00;;;22.63;;
56455;SDS011;42354;53.218;6.564;2022-11-15T02:03:08;44.30;;;23.00;;
56455;SDS011;42354;53.218;6.564;2022-11-15T02:05:34;42.65;;;23.20;;
56455;SDS011;42354;53.218;6.564;2022-11-15T02:08:01;42.22;;;22.88;;
56455;SDS011;42354;53.218;6.564;2022-11-15T02:10:27;40.92;;;22.73;;
56455;SDS011;42354;53.218;6.564;2022-11-15T02:12:52;43.65;;;23.98;;
56455;SDS011;42354;53.218;6.564;2022-11-15T02:15:20;47.25;;;23.52;;
56455;SDS011;42354;53.218;6.564;2022-11-15T02:20:58;44.60;;;22.45;;
56455;SDS011;42354;53.218;6.564;2022-11-15T02:28:59;45.78;;;21.65;;
56455;SDS011;42354;53.218;6.564;2022-11-15T02:42:13;43.20;;;21.13;;
56455;SDS011;42354;53.218;6.564;2022-11-15T02:45:04;49.10;;;23.05;;
56455;SDS011;42354;53.218;6.564;2022-11-15T02:47:37;43.00;;;21.80;;
56455;SDS011;42354;53.218;6.564;2022-11-15T02:50:09;45.70;;;22.30;;
56455;SDS011;42354;53.218;6.564;2022-11-15T02:52:37;43.63;;;21.67;;
56455;SDS011;42354;53.218;6.564;2022-11-15T02:55:02;43.55;;;21.98;;
56455;SDS011;42354;53.218;6.564;2022-11-15T03:00:21;47.72;;;23.23;;
56455;SDS011;42354;53.218;6.564;2022-11-15T03:03:10;47.05;;;22.98;;
56455;SDS011;42354;53.218;6.564;2022-11-15T03:13:54;56.45;;;24.45;;
56455;SDS011;42354;53.218;6.564;2022-11-15T03:18:58;54.05;;;23.95;;
56455;SDS011;42354;53.218;6.564;2022-11-15T03:21:29;52.35;;;24.08;;
56455;SDS011;42354;53.218;6.564;2022-11-15T03:23:57;51.88;;;23.25;;
56455;SDS011;42354;53.218;6.564;2022-11-15T03:26:26;52.38;;;23.42;;
56455;SDS011;42354;53.218;6.564;2022-11-15T03:28:59;51.50;;;24.17;;
56455;SDS011;42354;53.218;6.564;2022-11-15T03:31:29;54.70;;;24.70;;
56455;SDS011;42354;53.218;6.564;2022-11-15T03:34:14;52.22;;;24.15;;
56455;SDS011;42354;53.218;6.564;2022-11-15T03:36:50;54.78;;;24.02;;
56455;SDS011;42354;53.218;6.564;2022-11-15T03:39:17;54.85;;;24.50;;
56455;SDS011;42354;53.218;6.564;2022-11-15T03:44:51;62.03;;;24.52;;
56455;SDS011;42354;53.218;6.564;2022-11-15T03:47:29;55.88;;;23.80;;
56455;SDS011;42354;53.218;6.564;2022-11-15T03:50:21;59.30;;;25.30;;
56455;SDS011;42354;53.218;6.564;2022-11-15T03:52:49;53.25;;;23.38;;
56455;SDS011;42354;53.218;6.564;2022-11-15T03:55:16;57.55;;;24.90;;
56455;SDS011;42354;53.218;6.564;2022-11-15T03:57:43;52.67;;;23.52;;
56455;SDS011;42354;53.218;6.564;2022-11-15T04:00:08;52.75;;;24.15;;
56455;SDS011;42354;53.218;6.564;2022-11-15T04:02:34;51.78;;;24.38;;
56455;SDS011;42354;53.218;6.564;2022-11-15T04:04:59;55.60;;;23.83;;
56455;SDS011;42354;53.218;6.564;2022-11-15T04:07:25;54.75;;;24.88;;
56455;SDS011;42354;53.218;6.564;2022-11-15T04:09:50;52.75;;;24.27;;
56455;SDS011;42354;53.218;6.564;2022-11-15T04:12:28;57.67;;;24.48;;
56455;SDS011;42354;53.218;6.564;2022-11-15T04:15:22;54.90;;;22.55;;
56455;SDS011;42354;53.218;6.564;2022-11-15T04:20:18;59.63;;;24.40;;
56455;SDS011;42354;53.218;6.564;2022-11-15T04:23:25;53.58;;;23.70;;
56455;SDS011;42354;53.218;6.564;2022-11-15T04:26:11;54.75;;;22.98;;
56455;SDS011;42354;53.218;6.564;2022-11-15T04:28:39;54.30;;;24.80;;
56455;SDS011;42354;53.218;6.564;2022-11-15T04:31:25;61.85;;;24.80;;
56455;SDS011;42354;53.218;6.564;2022-11-15T04:33:50;61.10;;;25.42;;
56455;SDS011;42354;53.218;6.564;2022-11-15T04:36:16;62.30;;;26.83;;
56455;SDS011;42354;53.218;6.564;2022-11-15T04:39:00;65.70;;;26.50;;
56455;SDS011;42354;53.218;6.564;2022-11-15T04:41:25;70.93;;;27.25;;
56455;SDS011;42354;53.218;6.564;2022-11-15T04:43:50;64.68;;;27.45;;
56455;SDS011;42354;53.218;6.564;2022-11-15T04:46:16;66.72;;;27.67;;
56455;SDS011;42354;53.218;6.564;2022-11-15T04:48:41;63.53;;;27.45;;
56455;SDS011;42354;53.218;6.564;2022-11-15T04:51:06;72.85;;;27.23;;
56455;SDS011;42354;53.218;6.564;2022-11-15T04:53:32;64.20;;;26.13;;
56455;SDS011;42354;53.218;6.564;2022-11-15T04:55:57;71.45;;;28.58;;
56455;SDS011;42354;53.218;6.564;2022-11-15T04:58:22;68.03;;;27.33;;
56455;SDS011;42354;53.218;6.564;2022-11-15T05:00:48;73.20;;;28.38;;
56455;SDS011;42354;53.218;6.564;2022-11-15T05:03:13;71.32;;;28.00;;
56455;SDS011;42354;53.218;6.564;2022-11-15T05:05:57;78.82;;;29.20;;
56455;SDS011;42354;53.218;6.564;2022-11-15T05:08:23;74.78;;;29.23;;
56455;SDS011;42354;53.218;6.564;2022-11-15T05:10:49;85.00;;;31.00;;
56455;SDS011;42354;53.218;6.564;2022-11-15T05:13:14;90.18;;;31.17;;
56455;SDS011;42354;53.218;6.564;2022-11-15T05:15:39;84.50;;;30.55;;
56455;SDS011;42354;53.218;6.564;2022-11-15T05:18:05;93.18;;;33.00;;
56455;SDS011;42354;53.218;6.564;2022-11-15T05:20:30;96.57;;;32.97;;
56455;SDS011;42354;53.218;6.564;2022-11-15T05:22:55;83.47;;;31.83;;
56455;SDS011;42354;53.218;6.564;2022-11-15T05:25:21;101.18;;;34.80;;
56455;SDS011;42354;53.218;6.564;2022-11-15T05:27:47;102.85;;;34.58;;
56455;SDS011;42354;53.218;6.564;2022-11-15T05:30:13;105.72;;;35.30;;
56455;SDS011;42354;53.218;6.564;2022-11-15T05:32:39;107.70;;;37.40;;
56455;SDS011;42354;53.218;6.564;2022-11-15T05:35:04;108.10;;;36.50;;
56455;SDS011;42354;53.218;6.564;2022-11-15T05:37:32;116.78;;;37.42;;
56455;SDS011;42354;53.218;6.564;2022-11-15T05:39:57;122.22;;;38.20;;
56455;SDS011;42354;53.218;6.564;2022-11-15T05:42:23;134.15;;;40.22;;
56455;SDS011;42354;53.218;6.564;2022-11-15T05:44:51;143.98;;;41.70;;
56455;SDS011;42354;53.218;6.564;2022-11-15T05:47:18;124.82;;;40.22;;
56455;SDS011;42354;53.218;6.564;2022-11-15T05:49:46;137.85;;;40.42;;
56455;SDS011;42354;53.218;6.564;2022-11-15T05:52:14;130.60;;;40.45;;
56455;SDS011;42354;53.218;6.564;2022-11-15T05:54:44;132.63;;;40.20;;
56455;SDS011;42354;53.218;6.564;2022-11-15T05:57:09;136.98;;;41.97;;
56455;SDS011;42354;53.218;6.564;2022-11-15T05:59:35;132.60;;;39.35;;
56455;SDS011;42354;53.218;6.564;2022-11-15T06:02:01;132.63;;;41.55;;
56455;SDS011;42354;53.218;6.564;2022-11-15T06:04:26;149.10;;;44.05;;
56455;SDS011;42354;53.218;6.564;2022-11-15T06:06:52;148.52;;;43.00;;
56455;SDS011;42354;53.218;6.564;2022-11-15T06:09:17;148.90;;;45.42;;
56455;SDS011;42354;53.218;6.564;2022-11-15T06:11:42;143.00;;;42.97;;
56455;SDS011;42354;53.218;6.564;2022-11-15T06:14:08;148.55;;;44.70;;
56455;SDS011;42354;53.218;6.564;2022-11-15T06:16:33;161.20;;;44.53;;
56455;SDS011;42354;53.218;6.564;2022-11-15T06:18:58;151.52;;;44.35;;
56455;SDS011;42354;53.218;6.564;2022-11-15T06:21:24;150.93;;;42.67;;
56455;SDS011;42354;53.218;6.564;2022-11-15T06:23:49;159.32;;;45.63;;
56455;SDS011;42354;53.218;6.564;2022-11-15T06:26:14;146.20;;;44.17;;
56455;SDS011;42354;53.218;6.564;2022-11-15T06:28:40;141.07;;;42.58;;
56455;SDS011;42354;53.218;6.564;2022-11-15T06:31:06;132.32;;;42.72;;
56455;SDS011;42354;53.218;6.564;2022-11-15T06:33:33;134.30;;;42.45;;
56455;SDS011;42354;53.218;6.564;2022-11-15T06:36:05;132.75;;;42.75;;
56455;SDS011;42354;53.218;6.564;2022-11-15T06:38:33;130.63;;;42.22;;
56455;SDS011;42354;53.218;6.564;2022-11-15T06:41:06;136.07;;;43.60;;
56455;SDS011;42354;53.218;6.564;2022-11-15T06:43:33;130.93;;;42.38;;
56455;SDS011;42354;53.218;6.564;2022-11-15T06:45:59;122.18;;;43.22;;
56455;SDS011;42354;53.218;6.564;2022-11-15T06:48:25;129.98;;;42.40;;
56455;SDS011;42354;53.218;6.564;2022-11-15T06:50:52;137.23;;;43.42;;
56455;SDS011;42354;53.218;6.564;2022-11-15T06:53:18;129.88;;;41.33;;
56455;SDS011;42354;53.218;6.564;2022-11-15T06:55:43;132.35;;;43.70;;
56455;SDS011;42354;53.218;6.564;2022-11-15T06:58:09;115.65;;;41.78;;
56455;SDS011;42354;53.218;6.564;2022-11-15T07:00:34;123.20;;;42.83;;
56455;SDS011;42354;53.218;6.564;2022-11-15T07:03:00;118.20;;;40.92;;
56455;SDS011;42354;53.218;6.564;2022-11-15T07:05:25;114.63;;;41.38;;
56455;SDS011;42354;53.218;6.564;2022-11-15T07:07:52;113.57;;;41.13;;
56455;SDS011;42354;53.218;6.564;2022-11-15T07:10:18;125.43;;;41.55;;
56455;SDS011;42354;53.218;6.564;2022-11-15T07:12:46;120.75;;;41.30;;
56455;SDS011;42354;53.218;6.564;2022-11-15T07:15:13;108.13;;;41.17;;
56455;SDS011;42354;53.218;6.564;2022-11-15T07:17:39;107.97;;;40.00;;
56455;SDS011;42354;53.218;6.564;2022-11-15T07:20:05;119.35;;;40.72;;
56455;SDS011;42354;53.218;6.564;2022-11-15T07:22:30;112.18;;;40.85;;
56455;SDS011;42354;53.218;6.564;2022-11-15T07:24:56;110.03;;;40.42;;
56455;SDS011;42354;53.218;6.564;2022-11-15T07:27:21;109.85;;;41.20;;
56455;SDS011;42354;53.218;6.564;2022-11-15T07:29:48;107.82;;;39.83;;
56455;SDS011;42354;53.218;6.564;2022-11-15T07:32:13;110.03;;;39.72;;
56455;SDS011;42354;53.218;6.564;2022-11-15T07:34:38;115.65;;;39.97;;
56455;SDS011;42354;53.218;6.564;2022-11-15T07:37:04;108.90;;;39.42;;
56455;SDS011;42354;53.218;6.564;2022-11-15T07:39:29;103.20;;;39.08;;
56455;SDS011;42354;53.218;6.564;2022-11-15T07:41:54;101.35;;;40.50;;
56455;SDS011;42354;53.218;6.564;2022-11-15T07:44:40;99.05;;;39.30;;
56455;SDS011;42354;53.218;6.564;2022-11-15T07:47:05;99.68;;;38.88;;
56455;SDS011;42354;53.218;6.564;2022-11-15T07:49:30;104.43;;;37.90;;
56455;SDS011;42354;53.218;6.564;2022-11-15T07:51:56;108.25;;;37.30;;
56455;SDS011;42354;53.218;6.564;2022-11-15T07:54:21;96.78;;;36.58;;
56455;SDS011;42354;53.218;6.564;2022-11-15T07:56:46;92.82;;;37.95;;
56455;SDS011;42354;53.218;6.564;2022-11-15T07:59:13;89.13;;;36.47;;
56455;SDS011;42354;53.218;6.564;2022-11-15T08:01:38;95.80;;;37.10;;
56455;SDS011;42354;53.218;6.564;2022-11-15T08:04:03;82.95;;;34.78;;
56455;SDS011;42354;53.218;6.564;2022-11-15T08:06:29;87.60;;;35.67;;
56455;SDS011;42354;53.218;6.564;2022-11-15T08:08:55;88.43;;;35.75;;
56455;SDS011;42354;53.218;6.564;2022-11-15T08:11:20;74.07;;;34.28;;
56455;SDS011;42354;53.218;6.564;2022-11-15T08:13:45;82.97;;;33.38;;
56455;SDS011;42354;53.218;6.564;2022-11-15T08:16:11;83.03;;;34.20;;
56455;SDS011;42354;53.218;6.564;2022-11-15T08:18:36;82.05;;;33.38;;
56455;SDS011;42354;53.218;6.564;2022-11-15T08:21:02;79.10;;;33.20;;
56455;SDS011;42354;53.218;6.564;2022-11-15T08:23:29;69.53;;;32.47;;
56455;SDS011;42354;53.218;6.564;2022-11-15T08:26:04;73.43;;;33.50;;
56455;SDS011;42354;53.218;6.564;2022-11-15T08:28:30;67.45;;;32.33;;
56455;SDS011;42354;53.218;6.564;2022-11-15T08:33:28;61.65;;;30.67;;
56455;SDS011;42354;53.218;6.564;2022-11-15T08:35:58;61.22;;;30.88;;
56455;SDS011;42354;53.218;6.564;2022-11-15T08:38:24;61.35;;;30.40;;
56455;SDS011;42354;53.218;6.564;2022-11-15T08:40:51;64.72;;;31.10;;
56455;SDS011;42354;53.218;6.564;2022-11-15T08:43:24;57.90;;;30.60;;
56455;SDS011;42354;53.218;6.564;2022-11-15T08:45:49;55.20;;;29.50;;
56455;SDS011;42354;53.218;6.564;2022-11-15T08:48:14;56.80;;;28.25;;
56455;SDS011;42354;53.218;6.564;2022-11-15T08:50:40;58.55;;;29.30;;
56455;SDS011;42354;53.218;6.564;2022-11-15T08:53:08;65.57;;;29.42;;
56455;SDS011;42354;53.218;6.564;2022-11-15T08:55:35;53.47;;;27.85;;
56455;SDS011;42354;53.218;6.564;2022-11-15T08:58:01;56.92;;;28.27;;
56455;SDS011;42354;53.218;6.564;2022-11-15T09:00:27;57.55;;;27.25;;
56455;SDS011;42354;53.218;6.564;2022-11-15T09:02:52;47.80;;;27.05;;
56455;SDS011;42354;53.218;6.564;2022-11-15T09:05:18;46.72;;;26.45;;
56455;SDS011;42354;53.218;6.564;2022-11-15T09:07:43;49.05;;;26.50;;
56455;SDS011;42354;53.218;6.564;2022-11-15T09:10:09;47.28;;;25.85;;
56455;SDS011;42354;53.218;6.564;2022-11-15T09:12:34;48.42;;;24.67;;
56455;SDS011;42354;53.218;6.564;2022-11-15T09:15:00;48.88;;;25.25;;
56455;SDS011;42354;53.218;6.564;2022-11-15T09:17:26;43.80;;;23.95;;
56455;SDS011;42354;53.218;6.564;2022-11-15T09:19:52;44.83;;;22.88;;
56455;SDS011;42354;53.218;6.564;2022-11-15T09:22:17;39.53;;;23.15;;
56455;SDS011;42354;53.218;6.564;2022-11-15T09:24:43;42.38;;;24.33;;
56455;SDS011;42354;53.218;6.564;2022-11-15T09:27:08;44.35;;;22.15;;
56455;SDS011;42354;53.218;6.564;2022-11-15T09:29:34;39.70;;;21.63;;
56455;SDS011;42354;53.218;6.564;2022-11-15T09:32:01;41.63;;;21.60;;
56455;SDS011;42354;53.218;6.564;2022-11-15T09:34:27;39.92;;;21.95;;
56455;SDS011;42354;53.218;6.564;2022-11-15T09:36:52;43.30;;;22.10;;
56455;SDS011;42354;53.218;6.564;2022-11-15T09:39:18;38.58;;;21.73;;
56455;SDS011;42354;53.218;6.564;2022-11-15T09:41:49;33.05;;;19.90;;
56455;SDS011;42354;53.218;6.564;2022-11-15T09:44:26;38.20;;;21.10;;
56455;SDS011;42354;53.218;6.564;2022-11-15T09:47:49;40.00;;;20.10;;
56455;SDS011;42354;53.218;6.564;2022-11-15T09:50:01;34.10;;;20.90;;
56455;SDS011;42354;53.218;6.564;2022-11-15T09:52:33;34.55;;;20.73;;
56455;SDS011;42354;53.218;6.564;2022-11-15T09:55:01;39.85;;;21.27;;
56455;SDS011;42354;53.218;6.564;2022-11-15T09:57:44;34.20;;;20.80;;
56455;SDS011;42354;53.218;6.564;2022-11-15T10:11:03;34.13;;;19.85;;
56455;SDS011;42354;53.218;6.564;2022-11-15T10:13:33;33.38;;;20.25;;
56455;SDS011;42354;53.218;6.564;2022-11-15T10:21:53;34.85;;;18.27;;
56455;SDS011;42354;53.218;6.564;2022-11-15T10:24:23;32.40;;;18.73;;
56455;SDS011;42354;53.218;6.564;2022-11-15T10:26:50;39.97;;;20.05;;
56455;SDS011;42354;53.218;6.564;2022-11-15T10:29:19;31.13;;;18.92;;
56455;SDS011;42354;53.218;6.564;2022-11-15T10:31:45;33.42;;;18.63;;
56455;SDS011;42354;53.218;6.564;2022-11-15T10:36:44;33.63;;;18.42;;
56455;SDS011;42354;53.218;6.564;2022-11-15T10:39:11;36.05;;;19.67;;
56455;SDS011;42354;53.218;6.564;2022-11-15T10:41:39;32.60;;;18.27;;
56455;SDS011;42354;53.218;6.564;2022-11-15T10:46:31;32.83;;;17.95;;
56455;SDS011;42354;53.218;6.564;2022-11-15T10:51:56;31.45;;;17.15;;
56455;SDS011;42354;53.218;6.564;2022-11-15T11:00:43;36.20;;;17.67;;
56455;SDS011;42354;53.218;6.564;2022-11-15T11:13:22;34.95;;;19.52;;
56455;SDS011;42354;53.218;6.564;2022-11-15T11:15:55;31.05;;;19.10;;
56455;SDS011;42354;53.218;6.564;2022-11-15T11:24:56;41.78;;;20.55;;
56455;SDS011;42354;53.218;6.564;2022-11-15T11:32:47;34.72;;;18.73;;
56455;SDS011;42354;53.218;6.564;2022-11-15T11:47:23;28.92;;;17.80;;
56455;SDS011;42354;53.218;6.564;2022-11-15T11:49:57;27.08;;;15.23;;
56455;SDS011;42354;53.218;6.564;2022-11-15T12:01:07;22.83;;;14.05;;
56455;SDS011;42354;53.218;6.564;2022-11-15T12:11:54;18.65;;;11.38;;
56455;SDS011;42354;53.218;6.564;2022-11-15T12:17:27;15.20;;;10.30;;
56455;SDS011;42354;53.218;6.564;2022-11-15T12:20:02;16.52;;;10.32;;
56455;SDS011;42354;53.218;6.564;2022-11-15T12:22:44;23.17;;;11.25;;
56455;SDS011;42354;53.218;6.564;2022-11-15T12:25:16;14.63;;;9.20;;
56455;SDS011;42354;53.218;6.564;2022-11-15T12:28:08;14.73;;;8.30;;
56455;SDS011;42354;53.218;6.564;2022-11-15T12:31:37;13.48;;;7.68;;
56455;SDS011;42354;53.218;6.564;2022-11-15T12:33:49;16.50;;;7.40;;
56455;SDS011;42354;53.218;6.564;2022-11-15T12:38:59;12.18;;;7.53;;
56455;SDS011;42354;53.218;6.564;2022-11-15T12:41:29;12.70;;;7.75;;
56455;SDS011;42354;53.218;6.564;2022-11-15T12:43:56;14.57;;;7.88;;
56455;SDS011;42354;53.218;6.564;2022-11-15T12:48:59;12.45;;;7.47;;
56455;SDS011;42354;53.218;6.564;2022-11-15T12:56:51;13.32;;;6.85;;
56455;SDS011;42354;53.218;6.564;2022-11-15T12:59:50;11.02;;;6.25;;
56455;SDS011;42354;53.218;6.564;2022-11-15T13:17:41;12.40;;;6.30;;
56455;SDS011;42354;53.218;6.564;2022-11-15T13:22:41;11.93;;;5.88;;
56455;SDS011;42354;53.218;6.564;2022-11-15T13:30:48;14.70;;;7.22;;
56455;SDS011;42354;53.218;6.564;2022-11-15T13:33:14;15.57;;;9.00;;
56455;SDS011;42354;53.218;6.564;2022-11-15T13:35:45;12.27;;;5.28;;
56455;SDS011;42354;53.218;6.564;2022-11-15T13:40:52;10.60;;;4.43;;
56455;SDS011;42354;53.218;6.564;2022-11-15T13:46:02;11.15;;;5.10;;
56455;SDS011;42354;53.218;6.564;2022-11-15T13:48:29;10.35;;;4.85;;
56455;SDS011;42354;53.218;6.564;2022-11-15T13:50:54;9.27;;;4.43;;
56455;SDS011;42354;53.218;6.564;2022-11-15T13:53:21;5.97;;;3.70;;
56455;SDS011;42354;53.218;6.564;2022-11-15T13:55:47;9.20;;;4.15;;
56455;SDS011;42354;53.218;6.564;2022-11-15T13:58:13;5.55;;;3.53;;
56455;SDS011;42354;53.218;6.564;2022-11-15T14:00:39;9.18;;;3.70;;
56455;SDS011;42354;53.218;6.564;2022-11-15T14:03:19;10.38;;;4.43;;
56455;SDS011;42354;53.218;6.564;2022-11-15T14:08:37;8.65;;;3.63;;
56455;SDS011;42354;53.218;6.564;2022-11-15T14:13:32;11.68;;;4.15;;
56455;SDS011;42354;53.218;6.564;2022-11-15T14:18:52;7.10;;;3.00;;
56455;SDS011;42354;53.218;6.564;2022-11-15T14:21:19;6.78;;;3.88;;
56455;SDS011;42354;53.218;6.564;2022-11-15T14:23:45;11.82;;;4.28;;
56455;SDS011;42354;53.218;6.564;2022-11-15T14:26:25;7.78;;;3.90;;
56455;SDS011;42354;53.218;6.564;2022-11-15T14:28:53;6.47;;;4.28;;
56455;SDS011;42354;53.218;6.564;2022-11-15T14:31:18;9.00;;;4.10;;
56455;SDS011;42354;53.218;6.564;2022-11-15T14:33:44;6.25;;;3.35;;
56455;SDS011;42354;53.218;6.564;2022-11-15T14:38:35;6.03;;;3.85;;
56455;SDS011;42354;53.218;6.564;2022-11-15T14:41:00;11.93;;;3.83;;
56455;SDS011;42354;53.218;6.564;2022-11-15T14:43:26;8.60;;;4.20;;
56455;SDS011;42354;53.218;6.564;2022-11-15T14:45:51;5.90;;;3.25;;
56455;SDS011;42354;53.218;6.564;2022-11-15T14:48:16;6.28;;;2.97;;
56455;SDS011;42354;53.218;6.564;2022-11-15T14:50:42;5.05;;;2.58;;
56455;SDS011;42354;53.218;6.564;2022-11-15T14:53:11;5.70;;;2.70;;
56455;SDS011;42354;53.218;6.564;2022-11-15T14:55:38;7.80;;;2.70;;
56455;SDS011;42354;53.218;6.564;2022-11-15T14:58:03;5.45;;;2.78;;
56455;SDS011;42354;53.218;6.564;2022-11-15T15:00:34;4.88;;;2.60;;
56455;SDS011;42354;53.218;6.564;2022-11-15T15:03:00;4.32;;;2.20;;
56455;SDS011;42354;53.218;6.564;2022-11-15T15:05:33;4.20;;;2.22;;
56455;SDS011;42354;53.218;6.564;2022-11-15T15:07:59;4.35;;;2.13;;
56455;SDS011;42354;53.218;6.564;2022-11-15T15:10:26;5.30;;;2.70;;
56455;SDS011;42354;53.218;6.564;2022-11-15T15:12:55;6.78;;;2.65;;
56455;SDS011;42354;53.218;6.564;2022-11-15T15:15:24;4.22;;;2.50;;
56455;SDS011;42354;53.218;6.564;2022-11-15T15:17:52;6.22;;;2.03;;
56455;SDS011;42354;53.218;6.564;2022-11-15T15:20:17;6.45;;;2.42;;
56455;SDS011;42354;53.218;6.564;2022-11-15T15:22:43;4.65;;;2.58;;
56455;SDS011;42354;53.218;6.564;2022-11-15T15:25:18;5.32;;;2.55;;
56455;SDS011;42354;53.218;6.564;2022-11-15T15:27:51;5.93;;;3.05;;
56455;SDS011;42354;53.218;6.564;2022-11-15T15:30:17;6.90;;;3.70;;
56455;SDS011;42354;53.218;6.564;2022-11-15T15:32:42;6.38;;;3.85;;
56455;SDS011;42354;53.218;6.564;2022-11-15T15:35:10;10.20;;;4.15;;
56455;SDS011;42354;53.218;6.564;2022-11-15T15:37:37;10.63;;;3.90;;
56455;SDS011;42354;53.218;6.564;2022-11-15T15:40:02;8.68;;;3.92;;
56455;SDS011;42354;53.218;6.564;2022-11-15T15:42:28;9.05;;;4.18;;
56455;SDS011;42354;53.218;6.564;2022-11-15T15:44:53;8.63;;;4.15;;
56455;SDS011;42354;53.218;6.564;2022-11-15T15:47:22;7.97;;;3.95;;
56455;SDS011;42354;53.218;6.564;2022-11-15T15:49:48;7.70;;;4.25;;
56455;SDS011;42354;53.218;6.564;2022-11-15T15:52:14;9.50;;;4.90;;
56455;SDS011;42354;53.218;6.564;2022-11-15T15:54:40;7.88;;;5.10;;
56455;SDS011;42354;53.218;6.564;2022-11-15T15:57:06;8.57;;;5.55;;
56455;SDS011;42354;53.218;6.564;2022-11-15T15:59:32;9.13;;;6.15;;
56455;SDS011;42354;53.218;6.564;2022-11-15T16:02:01;9.90;;;6.15;;
56455;SDS011;42354;53.218;6.564;2022-11-15T16:04:26;12.30;;;5.97;;
56455;SDS011;42354;53.218;6.564;2022-11-15T16:06:54;11.80;;;5.80;;
56455;SDS011;42354;53.218;6.564;2022-11-15T16:09:23;10.70;;;6.03;;
56455;SDS011;42354;53.218;6.564;2022-11-15T16:12:08;12.07;;;6.80;;
56455;SDS011;42354;53.218;6.564;2022-11-15T16:14:34;12.80;;;6.57;;
56455;SDS011;42354;53.218;6.564;2022-11-15T16:16:59;12.95;;;7.32;;
56455;SDS011;42354;53.218;6.564;2022-11-15T16:19:25;11.77;;;7.63;;
56455;SDS011;42354;53.218;6.564;2022-11-15T16:21:50;10.27;;;7.00;;
56455;SDS011;42354;53.218;6.564;2022-11-15T16:24:17;11.00;;;6.68;;
